sensor_id;sensor_type;location;lat;lon;timestamp;temperature;humidity
31661;DHT22;18267;52.234;7.444;2024-02-04T00:01:40;10.40;99.90
31661;DHT22;18267;52.234;7.444;2024-02-04T00:04:06;10.50;99.90
31661;DHT22;18267;52.234;7.444;2024-02-04T00:06:31;10.50;99.90
31661;DHT22;18267;52.234;7.444;2024-02-04T00:08:57;10.50;99.90
31661;DHT22;18267;52.234;7.444;2024-02-04T00:11:23;10.60;99.90
31661;DHT22;18267;52.234;7.444;2024-02-04T00:13:48;10.60;99.90
31661;DHT22;18267;52.234;7.444;2024-02-04T00:16:14;10.60;99.90
31661;DHT22;18267;52.234;7.444;2024-02-04T00:18:39;10.40;99.90
31661;DHT22;18267;52.234;7.444;2024-02-04T00:21:05;10.30;99.90
31661;DHT22;18267;52.234;7.444;2024-02-04T00:23:36;10.20;99.90
31661;DHT22;18267;52.234;7.444;2024-02-04T00:26:02;10.20;99.90
31661;DHT22;18267;52.234;7.444;2024-02-04T00:28:28;10.10;99.90
31661;DHT22;18267;52.234;7.444;2024-02-04T00:30:54;10.10;99.90
31661;DHT22;18267;52.234;7.444;2024-02-04T00:33:21;10.20;99.90
31661;DHT22;18267;52.234;7.444;2024-02-04T00:35:47;10.20;99.90
31661;DHT22;18267;52.234;7.444;2024-02-04T00:38:12;10.20;99.90
31661;DHT22;18267;52.234;7.444;2024-02-04T00:40:38;10.30;99.90
31661;DHT22;18267;52.234;7.444;2024-02-04T00:43:03;10.40;99.90
31661;DHT22;18267;52.234;7.444;2024-02-04T00:45:29;10.40;99.90
31661;DHT22;18267;52.234;7.444;2024-02-04T00:47:54;10.40;99.90
31661;DHT22;18267;52.234;7.444;2024-02-04T00:50:20;10.40;99.90
31661;DHT22;18267;52.234;7.444;2024-02-04T00:52:45;10.40;99.90
31661;DHT22;18267;52.234;7.444;2024-02-04T00:55:11;10.40;99.90
31661;DHT22;18267;52.234;7.444;2024-02-04T00:57:37;10.40;99.90
31661;DHT22;18267;52.234;7.444;2024-02-04T01:00:02;10.40;99.90
31661;DHT22;18267;52.234;7.444;2024-02-04T01:02:29;10.50;99.90
31661;DHT22;18267;52.234;7.444;2024-02-04T01:04:55;10.50;99.90
31661;DHT22;18267;52.234;7.444;2024-02-04T01:07:20;10.50;99.90
31661;DHT22;18267;52.234;7.444;2024-02-04T01:09:46;10.50;99.90
31661;DHT22;18267;52.234;7.444;2024-02-04T01:12:11;10.50;99.90
31661;DHT22;18267;52.234;7.444;2024-02-04T01:14:37;10.40;99.90
31661;DHT22;18267;52.234;7.444;2024-02-04T01:17:02;10.40;99.90
31661;DHT22;18267;52.234;7.444;2024-02-04T01:19:28;10.30;99.90
31661;DHT22;18267;52.234;7.444;2024-02-04T01:21:54;10.40;99.90
31661;DHT22;18267;52.234;7.444;2024-02-04T01:24:19;10.40;99.90
31661;DHT22;18267;52.234;7.444;2024-02-04T01:26:45;10.30;99.90
31661;DHT22;18267;52.234;7.444;2024-02-04T01:29:10;10.30;99.90
31661;DHT22;18267;52.234;7.444;2024-02-04T01:31:36;10.20;99.90
31661;DHT22;18267;52.234;7.444;2024-02-04T01:34:02;10.20;99.90
31661;DHT22;18267;52.234;7.444;2024-02-04T01:36:27;10.20;99.90
31661;DHT22;18267;52.234;7.444;2024-02-04T01:38:53;10.20;99.90
31661;DHT22;18267;52.234;7.444;2024-02-04T01:41:18;10.20;99.90
31661;DHT22;18267;52.234;7.444;2024-02-04T01:43:44;10.20;99.90
31661;DHT22;18267;52.234;7.444;2024-02-04T01:46:10;10.10;99.90
31661;DHT22;18267;52.234;7.444;2024-02-04T01:48:36;10.00;99.90
31661;DHT22;18267;52.234;7.444;2024-02-04T01:51:02;10.00;99.90
31661;DHT22;18267;52.234;7.444;2024-02-04T01:53:29;10.00;99.90
31661;DHT22;18267;52.234;7.444;2024-02-04T01:55:57;9.90;99.90
31661;DHT22;18267;52.234;7.444;2024-02-04T01:58:24;9.90;99.90
31661;DHT22;18267;52.234;7.444;2024-02-04T02:00:50;10.00;99.90
31661;DHT22;18267;52.234;7.444;2024-02-04T02:03:16;9.90;99.90
31661;DHT22;18267;52.234;7.444;2024-02-04T02:05:42;10.00;99.90
31661;DHT22;18267;52.234;7.444;2024-02-04T02:08:08;10.00;99.90
31661;DHT22;18267;52.234;7.444;2024-02-04T02:10:33;10.00;99.90
31661;DHT22;18267;52.234;7.444;2024-02-04T02:13:07;10.00;99.90
31661;DHT22;18267;52.234;7.444;2024-02-04T02:15:39;10.00;99.90
31661;DHT22;18267;52.234;7.444;2024-02-04T02:18:30;10.10;99.90
31661;DHT22;18267;52.234;7.444;2024-02-04T02:24:03;10.10;99.90
31661;DHT22;18267;52.234;7.444;2024-02-04T02:26:31;10.10;99.90
31661;DHT22;18267;52.234;7.444;2024-02-04T02:28:57;10.20;99.90
31661;DHT22;18267;52.234;7.444;2024-02-04T02:31:22;10.20;99.90
31661;DHT22;18267;52.234;7.444;2024-02-04T02:33:48;10.10;99.90
31661;DHT22;18267;52.234;7.444;2024-02-04T02:36:18;10.00;99.90
31661;DHT22;18267;52.234;7.444;2024-02-04T02:39:10;10.00;99.90
31661;DHT22;18267;52.234;7.444;2024-02-04T02:41:42;10.10;99.90
31661;DHT22;18267;52.234;7.444;2024-02-04T02:44:08;10.00;99.90
31661;DHT22;18267;52.234;7.444;2024-02-04T02:46:36;10.00;99.90
31661;DHT22;18267;52.234;7.444;2024-02-04T02:49:02;10.10;99.90
31661;DHT22;18267;52.234;7.444;2024-02-04T02:51:28;10.20;99.90
31661;DHT22;18267;52.234;7.444;2024-02-04T02:53:53;10.20;99.90
31661;DHT22;18267;52.234;7.444;2024-02-04T02:56:19;10.20;99.90
31661;DHT22;18267;52.234;7.444;2024-02-04T02:58:44;10.20;99.90
31661;DHT22;18267;52.234;7.444;2024-02-04T03:01:10;10.10;99.90
31661;DHT22;18267;52.234;7.444;2024-02-04T03:03:35;10.10;99.90
31661;DHT22;18267;52.234;7.444;2024-02-04T03:06:01;10.20;99.90
31661;DHT22;18267;52.234;7.444;2024-02-04T03:08:26;10.20;99.90
31661;DHT22;18267;52.234;7.444;2024-02-04T03:10:52;10.20;99.90
31661;DHT22;18267;52.234;7.444;2024-02-04T03:13:17;10.20;99.90
31661;DHT22;18267;52.234;7.444;2024-02-04T03:15:44;10.20;99.90
31661;DHT22;18267;52.234;7.444;2024-02-04T03:18:10;10.20;99.90
31661;DHT22;18267;52.234;7.444;2024-02-04T03:20:36;10.30;99.90
31661;DHT22;18267;52.234;7.444;2024-02-04T03:23:01;10.20;99.90
31661;DHT22;18267;52.234;7.444;2024-02-04T03:25:27;10.20;99.90
31661;DHT22;18267;52.234;7.444;2024-02-04T03:27:54;10.20;99.90
31661;DHT22;18267;52.234;7.444;2024-02-04T03:30:20;10.20;99.90
31661;DHT22;18267;52.234;7.444;2024-02-04T03:32:46;10.30;99.90
31661;DHT22;18267;52.234;7.444;2024-02-04T03:35:11;10.20;99.90
31661;DHT22;18267;52.234;7.444;2024-02-04T03:37:37;10.20;99.90
31661;DHT22;18267;52.234;7.444;2024-02-04T03:40:02;10.20;99.90
31661;DHT22;18267;52.234;7.444;2024-02-04T03:42:28;10.20;99.90
31661;DHT22;18267;52.234;7.444;2024-02-04T03:44:54;10.20;99.90
31661;DHT22;18267;52.234;7.444;2024-02-04T03:47:19;10.20;99.90
31661;DHT22;18267;52.234;7.444;2024-02-04T03:49:45;10.20;99.90
31661;DHT22;18267;52.234;7.444;2024-02-04T03:52:10;10.20;99.90
31661;DHT22;18267;52.234;7.444;2024-02-04T03:54:36;10.10;99.90
31661;DHT22;18267;52.234;7.444;2024-02-04T03:57:01;10.10;99.90
31661;DHT22;18267;52.234;7.444;2024-02-04T03:59:27;10.10;99.90
31661;DHT22;18267;52.234;7.444;2024-02-04T04:01:52;10.10;99.90
31661;DHT22;18267;52.234;7.444;2024-02-04T04:04:23;10.10;99.90
31661;DHT22;18267;52.234;7.444;2024-02-04T04:06:48;10.10;99.90
31661;DHT22;18267;52.234;7.444;2024-02-04T04:09:14;10.00;99.90
31661;DHT22;18267;52.234;7.444;2024-02-04T04:11:40;10.00;99.90
31661;DHT22;18267;52.234;7.444;2024-02-04T04:14:05;10.10;99.90
31661;DHT22;18267;52.234;7.444;2024-02-04T04:16:31;10.00;99.90
31661;DHT22;18267;52.234;7.444;2024-02-04T04:18:57;10.00;99.90
31661;DHT22;18267;52.234;7.444;2024-02-04T04:21:24;10.00;99.90
31661;DHT22;18267;52.234;7.444;2024-02-04T04:23:49;10.00;99.90
31661;DHT22;18267;52.234;7.444;2024-02-04T04:26:15;10.00;99.90
31661;DHT22;18267;52.234;7.444;2024-02-04T04:28:41;10.00;99.90
31661;DHT22;18267;52.234;7.444;2024-02-04T04:31:06;10.10;99.90
31661;DHT22;18267;52.234;7.444;2024-02-04T04:33:32;10.10;99.90
31661;DHT22;18267;52.234;7.444;2024-02-04T04:35:58;10.00;99.90
31661;DHT22;18267;52.234;7.444;2024-02-04T04:38:23;10.00;99.90
31661;DHT22;18267;52.234;7.444;2024-02-04T04:40:49;9.90;99.90
31661;DHT22;18267;52.234;7.444;2024-02-04T04:43:14;9.90;99.90
31661;DHT22;18267;52.234;7.444;2024-02-04T04:45:40;10.00;99.90
31661;DHT22;18267;52.234;7.444;2024-02-04T04:48:06;9.90;99.90
31661;DHT22;18267;52.234;7.444;2024-02-04T04:50:33;10.00;99.90
31661;DHT22;18267;52.234;7.444;2024-02-04T04:52:58;10.00;99.90
31661;DHT22;18267;52.234;7.444;2024-02-04T04:55:24;9.90;99.90
31661;DHT22;18267;52.234;7.444;2024-02-04T04:57:50;9.90;99.90
31661;DHT22;18267;52.234;7.444;2024-02-04T05:00:17;10.00;99.90
31661;DHT22;18267;52.234;7.444;2024-02-04T05:02:43;10.00;99.90
31661;DHT22;18267;52.234;7.444;2024-02-04T05:05:11;9.90;99.90
31661;DHT22;18267;52.234;7.444;2024-02-04T05:07:37;9.90;99.90
31661;DHT22;18267;52.234;7.444;2024-02-04T05:10:03;9.80;99.90
31661;DHT22;18267;52.234;7.444;2024-02-04T05:12:29;9.80;99.90
31661;DHT22;18267;52.234;7.444;2024-02-04T05:14:55;9.80;99.90
31661;DHT22;18267;52.234;7.444;2024-02-04T05:17:21;9.80;99.90
31661;DHT22;18267;52.234;7.444;2024-02-04T05:19:46;9.80;99.90
31661;DHT22;18267;52.234;7.444;2024-02-04T05:22:12;9.80;99.90
31661;DHT22;18267;52.234;7.444;2024-02-04T05:24:37;9.70;99.90
31661;DHT22;18267;52.234;7.444;2024-02-04T05:27:03;9.80;99.90
31661;DHT22;18267;52.234;7.444;2024-02-04T05:29:30;9.80;99.90
31661;DHT22;18267;52.234;7.444;2024-02-04T05:31:56;9.90;99.90
31661;DHT22;18267;52.234;7.444;2024-02-04T05:34:21;9.90;99.90
31661;DHT22;18267;52.234;7.444;2024-02-04T05:36:47;9.80;99.90
31661;DHT22;18267;52.234;7.444;2024-02-04T05:39:14;9.90;99.90
31661;DHT22;18267;52.234;7.444;2024-02-04T05:41:40;9.80;99.90
31661;DHT22;18267;52.234;7.444;2024-02-04T05:44:06;9.90;99.90
31661;DHT22;18267;52.234;7.444;2024-02-04T05:46:37;9.80;99.90
31661;DHT22;18267;52.234;7.444;2024-02-04T05:49:03;9.80;99.90
31661;DHT22;18267;52.234;7.444;2024-02-04T05:51:31;9.80;99.90
31661;DHT22;18267;52.234;7.444;2024-02-04T05:53:56;9.80;99.90
31661;DHT22;18267;52.234;7.444;2024-02-04T05:56:22;9.80;99.90
31661;DHT22;18267;52.234;7.444;2024-02-04T05:58:48;9.70;99.90
31661;DHT22;18267;52.234;7.444;2024-02-04T06:01:15;9.70;99.90
31661;DHT22;18267;52.234;7.444;2024-02-04T06:03:41;9.70;99.90
31661;DHT22;18267;52.234;7.444;2024-02-04T06:06:08;9.70;99.90
31661;DHT22;18267;52.234;7.444;2024-02-04T06:08:33;9.80;99.90
31661;DHT22;18267;52.234;7.444;2024-02-04T06:10:59;9.80;99.90
31661;DHT22;18267;52.234;7.444;2024-02-04T06:13:24;9.90;99.90
31661;DHT22;18267;52.234;7.444;2024-02-04T06:15:50;9.90;99.90
31661;DHT22;18267;52.234;7.444;2024-02-04T06:18:15;9.90;99.90
31661;DHT22;18267;52.234;7.444;2024-02-04T06:20:41;9.80;99.90
31661;DHT22;18267;52.234;7.444;2024-02-04T06:23:07;9.80;99.90
31661;DHT22;18267;52.234;7.444;2024-02-04T06:25:32;9.90;99.90
31661;DHT22;18267;52.234;7.444;2024-02-04T06:27:58;9.90;99.90
31661;DHT22;18267;52.234;7.444;2024-02-04T06:30:23;9.80;99.90
31661;DHT22;18267;52.234;7.444;2024-02-04T06:32:49;9.80;99.90
31661;DHT22;18267;52.234;7.444;2024-02-04T06:35:17;9.70;99.90
31661;DHT22;18267;52.234;7.444;2024-02-04T06:37:43;9.70;99.90
31661;DHT22;18267;52.234;7.444;2024-02-04T06:40:10;9.70;99.90
31661;DHT22;18267;52.234;7.444;2024-02-04T06:42:36;9.70;99.90
31661;DHT22;18267;52.234;7.444;2024-02-04T06:45:01;9.70;99.90
31661;DHT22;18267;52.234;7.444;2024-02-04T06:47:27;9.70;99.90
31661;DHT22;18267;52.234;7.444;2024-02-04T06:49:52;9.70;99.90
31661;DHT22;18267;52.234;7.444;2024-02-04T06:52:18;9.70;99.90
31661;DHT22;18267;52.234;7.444;2024-02-04T06:54:44;9.70;99.90
31661;DHT22;18267;52.234;7.444;2024-02-04T06:57:09;9.70;99.90
31661;DHT22;18267;52.234;7.444;2024-02-04T06:59:35;9.70;99.90
31661;DHT22;18267;52.234;7.444;2024-02-04T07:02:00;9.60;99.90
31661;DHT22;18267;52.234;7.444;2024-02-04T07:04:26;9.60;99.90
31661;DHT22;18267;52.234;7.444;2024-02-04T07:06:52;9.60;99.90
31661;DHT22;18267;52.234;7.444;2024-02-04T07:09:18;9.60;99.90
31661;DHT22;18267;52.234;7.444;2024-02-04T07:11:43;9.60;99.90
31661;DHT22;18267;52.234;7.444;2024-02-04T07:14:09;9.60;99.90
31661;DHT22;18267;52.234;7.444;2024-02-04T07:16:34;9.70;99.90
31661;DHT22;18267;52.234;7.444;2024-02-04T07:19:00;9.70;99.90
31661;DHT22;18267;52.234;7.444;2024-02-04T07:21:26;9.70;99.90
31661;DHT22;18267;52.234;7.444;2024-02-04T07:23:51;9.70;99.90
31661;DHT22;18267;52.234;7.444;2024-02-04T07:26:17;9.70;99.90
31661;DHT22;18267;52.234;7.444;2024-02-04T07:28:42;9.70;99.90
31661;DHT22;18267;52.234;7.444;2024-02-04T07:31:08;9.70;99.90
31661;DHT22;18267;52.234;7.444;2024-02-04T07:33:33;9.70;99.90
31661;DHT22;18267;52.234;7.444;2024-02-04T07:35:59;9.60;99.90
31661;DHT22;18267;52.234;7.444;2024-02-04T07:38:24;9.60;99.90
31661;DHT22;18267;52.234;7.444;2024-02-04T07:40:50;9.60;99.90
31661;DHT22;18267;52.234;7.444;2024-02-04T07:43:16;9.50;99.90
31661;DHT22;18267;52.234;7.444;2024-02-04T07:45:42;9.60;99.90
31661;DHT22;18267;52.234;7.444;2024-02-04T07:48:07;9.60;99.90
31661;DHT22;18267;52.234;7.444;2024-02-04T07:50:34;9.50;99.90
31661;DHT22;18267;52.234;7.444;2024-02-04T07:53:00;9.50;99.90
31661;DHT22;18267;52.234;7.444;2024-02-04T07:55:26;9.50;99.90
31661;DHT22;18267;52.234;7.444;2024-02-04T07:57:51;9.50;99.90
31661;DHT22;18267;52.234;7.444;2024-02-04T08:00:17;9.50;99.90
31661;DHT22;18267;52.234;7.444;2024-02-04T08:02:44;9.50;99.90
31661;DHT22;18267;52.234;7.444;2024-02-04T08:05:10;9.50;99.90
31661;DHT22;18267;52.234;7.444;2024-02-04T08:07:36;9.50;99.90
31661;DHT22;18267;52.234;7.444;2024-02-04T08:10:02;9.50;99.90
31661;DHT22;18267;52.234;7.444;2024-02-04T08:12:28;9.50;99.90
31661;DHT22;18267;52.234;7.444;2024-02-04T08:14:53;9.60;99.90
31661;DHT22;18267;52.234;7.444;2024-02-04T08:17:19;9.60;99.90
31661;DHT22;18267;52.234;7.444;2024-02-04T08:19:44;9.70;99.90
31661;DHT22;18267;52.234;7.444;2024-02-04T08:22:10;9.80;99.90
31661;DHT22;18267;52.234;7.444;2024-02-04T08:24:36;9.80;99.90
31661;DHT22;18267;52.234;7.444;2024-02-04T08:27:01;9.90;99.90
31661;DHT22;18267;52.234;7.444;2024-02-04T08:29:27;9.90;99.90
31661;DHT22;18267;52.234;7.444;2024-02-04T08:31:53;10.00;99.90
31661;DHT22;18267;52.234;7.444;2024-02-04T08:34:18;10.00;99.90
31661;DHT22;18267;52.234;7.444;2024-02-04T08:36:48;10.10;99.90
31661;DHT22;18267;52.234;7.444;2024-02-04T08:39:13;10.00;99.90
31661;DHT22;18267;52.234;7.444;2024-02-04T08:41:39;10.00;99.90
31661;DHT22;18267;52.234;7.444;2024-02-04T08:44:04;10.00;99.90
31661;DHT22;18267;52.234;7.444;2024-02-04T08:46:30;9.90;99.90
31661;DHT22;18267;52.234;7.444;2024-02-04T08:48:56;9.90;99.90
31661;DHT22;18267;52.234;7.444;2024-02-04T08:51:21;10.00;99.90
31661;DHT22;18267;52.234;7.444;2024-02-04T08:53:47;10.10;99.90
31661;DHT22;18267;52.234;7.444;2024-02-04T08:56:12;10.00;99.90
31661;DHT22;18267;52.234;7.444;2024-02-04T08:58:38;10.00;99.90
31661;DHT22;18267;52.234;7.444;2024-02-04T09:01:05;10.00;99.90
31661;DHT22;18267;52.234;7.444;2024-02-04T09:03:30;10.00;99.90
31661;DHT22;18267;52.234;7.444;2024-02-04T09:05:57;10.10;99.90
31661;DHT22;18267;52.234;7.444;2024-02-04T09:08:22;10.10;99.90
31661;DHT22;18267;52.234;7.444;2024-02-04T09:10:48;10.10;99.90
31661;DHT22;18267;52.234;7.444;2024-02-04T09:13:14;10.20;99.90
31661;DHT22;18267;52.234;7.444;2024-02-04T09:15:39;10.20;99.90
31661;DHT22;18267;52.234;7.444;2024-02-04T09:18:05;10.20;99.90
31661;DHT22;18267;52.234;7.444;2024-02-04T09:20:31;10.20;99.90
31661;DHT22;18267;52.234;7.444;2024-02-04T09:23:25;10.30;99.90
31661;DHT22;18267;52.234;7.444;2024-02-04T09:25:51;10.20;99.90
31661;DHT22;18267;52.234;7.444;2024-02-04T09:28:16;10.20;99.90
31661;DHT22;18267;52.234;7.444;2024-02-04T09:30:42;10.20;99.90
31661;DHT22;18267;52.234;7.444;2024-02-04T09:33:07;10.30;99.90
31661;DHT22;18267;52.234;7.444;2024-02-04T09:35:35;10.20;99.90
31661;DHT22;18267;52.234;7.444;2024-02-04T09:38:00;10.20;99.90
31661;DHT22;18267;52.234;7.444;2024-02-04T09:40:26;10.20;99.90
31661;DHT22;18267;52.234;7.444;2024-02-04T09:42:52;10.30;99.90
31661;DHT22;18267;52.234;7.444;2024-02-04T09:45:17;10.30;99.90
31661;DHT22;18267;52.234;7.444;2024-02-04T09:47:45;10.30;99.90
31661;DHT22;18267;52.234;7.444;2024-02-04T09:50:10;10.30;99.90
31661;DHT22;18267;52.234;7.444;2024-02-04T09:52:39;10.30;99.90
31661;DHT22;18267;52.234;7.444;2024-02-04T09:55:09;10.30;99.90
31661;DHT22;18267;52.234;7.444;2024-02-04T09:57:35;10.30;99.90
31661;DHT22;18267;52.234;7.444;2024-02-04T10:00:04;10.30;99.90
31661;DHT22;18267;52.234;7.444;2024-02-04T10:02:32;10.40;99.90
31661;DHT22;18267;52.234;7.444;2024-02-04T10:04:57;10.30;99.90
31661;DHT22;18267;52.234;7.444;2024-02-04T10:07:23;10.50;99.90
31661;DHT22;18267;52.234;7.444;2024-02-04T10:09:50;10.40;99.90
31661;DHT22;18267;52.234;7.444;2024-02-04T10:12:16;10.40;99.90
31661;DHT22;18267;52.234;7.444;2024-02-04T10:14:42;10.40;99.90
31661;DHT22;18267;52.234;7.444;2024-02-04T10:17:08;10.40;99.90
31661;DHT22;18267;52.234;7.444;2024-02-04T10:19:34;10.40;99.90
31661;DHT22;18267;52.234;7.444;2024-02-04T10:22:00;10.40;99.90
31661;DHT22;18267;52.234;7.444;2024-02-04T10:24:26;10.40;99.90
31661;DHT22;18267;52.234;7.444;2024-02-04T10:26:53;10.50;99.90
31661;DHT22;18267;52.234;7.444;2024-02-04T10:29:18;10.50;99.90
31661;DHT22;18267;52.234;7.444;2024-02-04T10:31:44;10.60;99.90
31661;DHT22;18267;52.234;7.444;2024-02-04T10:34:10;10.60;99.90
31661;DHT22;18267;52.234;7.444;2024-02-04T10:36:35;10.60;99.90
31661;DHT22;18267;52.234;7.444;2024-02-04T10:39:01;10.70;99.90
31661;DHT22;18267;52.234;7.444;2024-02-04T10:41:29;10.80;99.90
31661;DHT22;18267;52.234;7.444;2024-02-04T10:43:57;10.80;99.90
31661;DHT22;18267;52.234;7.444;2024-02-04T10:46:28;10.80;99.90
31661;DHT22;18267;52.234;7.444;2024-02-04T10:49:01;10.90;99.90
31661;DHT22;18267;52.234;7.444;2024-02-04T10:51:29;10.80;99.90
31661;DHT22;18267;52.234;7.444;2024-02-04T10:53:56;10.80;99.90
31661;DHT22;18267;52.234;7.444;2024-02-04T10:56:34;10.70;99.90
31661;DHT22;18267;52.234;7.444;2024-02-04T10:59:03;10.70;99.90
31661;DHT22;18267;52.234;7.444;2024-02-04T11:01:29;10.70;99.90
31661;DHT22;18267;52.234;7.444;2024-02-04T11:03:58;10.80;99.90
31661;DHT22;18267;52.234;7.444;2024-02-04T11:06:28;10.80;99.90
31661;DHT22;18267;52.234;7.444;2024-02-04T11:08:58;10.90;99.90
31661;DHT22;18267;52.234;7.444;2024-02-04T11:11:33;10.90;99.90
31661;DHT22;18267;52.234;7.444;2024-02-04T11:14:02;10.90;99.90
31661;DHT22;18267;52.234;7.444;2024-02-04T11:19:44;10.90;99.90
31661;DHT22;18267;52.234;7.444;2024-02-04T11:25:28;10.70;99.90
31661;DHT22;18267;52.234;7.444;2024-02-04T11:27:58;10.70;99.90
31661;DHT22;18267;52.234;7.444;2024-02-04T11:30:24;10.80;99.90
31661;DHT22;18267;52.234;7.444;2024-02-04T11:32:50;10.80;99.90
31661;DHT22;18267;52.234;7.444;2024-02-04T11:35:16;10.90;99.90
31661;DHT22;18267;52.234;7.444;2024-02-04T11:37:42;10.80;99.90
31661;DHT22;18267;52.234;7.444;2024-02-04T11:40:15;10.80;99.90
31661;DHT22;18267;52.234;7.444;2024-02-04T11:42:44;10.80;99.90
31661;DHT22;18267;52.234;7.444;2024-02-04T11:45:13;10.90;99.90
31661;DHT22;18267;52.234;7.444;2024-02-04T11:47:40;10.90;99.90
31661;DHT22;18267;52.234;7.444;2024-02-04T11:50:06;10.90;99.90
31661;DHT22;18267;52.234;7.444;2024-02-04T11:52:32;10.90;99.90
31661;DHT22;18267;52.234;7.444;2024-02-04T11:54:58;10.90;99.90
31661;DHT22;18267;52.234;7.444;2024-02-04T11:57:24;10.80;99.90
31661;DHT22;18267;52.234;7.444;2024-02-04T11:59:51;10.70;99.90
31661;DHT22;18267;52.234;7.444;2024-02-04T12:02:18;10.70;99.90
31661;DHT22;18267;52.234;7.444;2024-02-04T12:04:44;10.70;99.90
31661;DHT22;18267;52.234;7.444;2024-02-04T12:07:10;10.70;99.90
31661;DHT22;18267;52.234;7.444;2024-02-04T12:09:36;10.70;99.90
31661;DHT22;18267;52.234;7.444;2024-02-04T12:12:03;10.80;99.90
31661;DHT22;18267;52.234;7.444;2024-02-04T12:14:31;10.90;99.90
31661;DHT22;18267;52.234;7.444;2024-02-04T12:16:57;10.80;99.90
31661;DHT22;18267;52.234;7.444;2024-02-04T12:19:23;10.90;99.90
31661;DHT22;18267;52.234;7.444;2024-02-04T12:21:49;10.90;99.90
31661;DHT22;18267;52.234;7.444;2024-02-04T12:24:15;10.80;99.90
31661;DHT22;18267;52.234;7.444;2024-02-04T12:26:41;10.70;99.90
31661;DHT22;18267;52.234;7.444;2024-02-04T12:29:07;10.70;99.90
31661;DHT22;18267;52.234;7.444;2024-02-04T12:31:32;10.70;99.90
31661;DHT22;18267;52.234;7.444;2024-02-04T12:34:01;10.70;99.90
31661;DHT22;18267;52.234;7.444;2024-02-04T12:36:31;10.70;99.90
31661;DHT22;18267;52.234;7.444;2024-02-04T12:38:58;10.80;99.90
31661;DHT22;18267;52.234;7.444;2024-02-04T12:41:25;10.80;99.90
31661;DHT22;18267;52.234;7.444;2024-02-04T12:43:52;10.70;99.90
31661;DHT22;18267;52.234;7.444;2024-02-04T12:46:19;10.70;99.90
31661;DHT22;18267;52.234;7.444;2024-02-04T12:48:45;10.70;99.90
31661;DHT22;18267;52.234;7.444;2024-02-04T12:51:10;10.70;99.90
31661;DHT22;18267;52.234;7.444;2024-02-04T12:53:37;10.70;99.90
31661;DHT22;18267;52.234;7.444;2024-02-04T12:56:03;10.70;99.90
31661;DHT22;18267;52.234;7.444;2024-02-04T12:58:28;10.70;99.90
31661;DHT22;18267;52.234;7.444;2024-02-04T13:01:01;10.70;99.90
31661;DHT22;18267;52.234;7.444;2024-02-04T13:03:27;10.60;99.90
31661;DHT22;18267;52.234;7.444;2024-02-04T13:06:03;10.70;99.90
31661;DHT22;18267;52.234;7.444;2024-02-04T13:08:30;10.70;99.90
31661;DHT22;18267;52.234;7.444;2024-02-04T13:10:57;10.70;99.90
31661;DHT22;18267;52.234;7.444;2024-02-04T13:13:23;10.70;99.90
31661;DHT22;18267;52.234;7.444;2024-02-04T13:15:59;10.70;99.90
31661;DHT22;18267;52.234;7.444;2024-02-04T13:18:26;10.70;99.90
31661;DHT22;18267;52.234;7.444;2024-02-04T13:20:52;10.80;99.90
31661;DHT22;18267;52.234;7.444;2024-02-04T13:23:22;10.70;99.90
31661;DHT22;18267;52.234;7.444;2024-02-04T13:25:48;10.70;99.90
31661;DHT22;18267;52.234;7.444;2024-02-04T13:28:14;10.80;99.90
31661;DHT22;18267;52.234;7.444;2024-02-04T13:30:43;10.80;99.90
31661;DHT22;18267;52.234;7.444;2024-02-04T13:33:09;10.70;99.90
31661;DHT22;18267;52.234;7.444;2024-02-04T13:35:48;10.80;99.90
31661;DHT22;18267;52.234;7.444;2024-02-04T13:38:30;10.70;99.90
31661;DHT22;18267;52.234;7.444;2024-02-04T13:41:15;10.80;99.90
31661;DHT22;18267;52.234;7.444;2024-02-04T13:44:01;10.80;99.90
31661;DHT22;18267;52.234;7.444;2024-02-04T13:46:36;10.80;99.90
31661;DHT22;18267;52.234;7.444;2024-02-04T13:49:28;10.90;99.90
31661;DHT22;18267;52.234;7.444;2024-02-04T13:51:55;10.80;99.90
31661;DHT22;18267;52.234;7.444;2024-02-04T13:54:20;10.80;99.90
31661;DHT22;18267;52.234;7.444;2024-02-04T13:56:46;10.80;99.90
31661;DHT22;18267;52.234;7.444;2024-02-04T13:59:12;10.80;99.90
31661;DHT22;18267;52.234;7.444;2024-02-04T14:01:38;10.80;99.90
31661;DHT22;18267;52.234;7.444;2024-02-04T14:04:04;10.80;99.90
31661;DHT22;18267;52.234;7.444;2024-02-04T14:06:30;10.80;99.90
31661;DHT22;18267;52.234;7.444;2024-02-04T14:08:56;10.80;99.90
31661;DHT22;18267;52.234;7.444;2024-02-04T14:11:22;10.80;99.90
31661;DHT22;18267;52.234;7.444;2024-02-04T14:13:47;10.90;99.90
31661;DHT22;18267;52.234;7.444;2024-02-04T14:16:13;10.90;99.90
31661;DHT22;18267;52.234;7.444;2024-02-04T14:18:42;10.80;99.90
31661;DHT22;18267;52.234;7.444;2024-02-04T14:21:12;10.80;99.90
31661;DHT22;18267;52.234;7.444;2024-02-04T14:23:39;10.80;99.90
31661;DHT22;18267;52.234;7.444;2024-02-04T14:26:05;10.80;99.90
31661;DHT22;18267;52.234;7.444;2024-02-04T14:28:33;10.80;99.90
31661;DHT22;18267;52.234;7.444;2024-02-04T14:31:06;10.70;99.90
31661;DHT22;18267;52.234;7.444;2024-02-04T14:33:32;10.70;99.90
31661;DHT22;18267;52.234;7.444;2024-02-04T14:35:58;10.70;99.90
31661;DHT22;18267;52.234;7.444;2024-02-04T14:38:25;10.70;99.90
31661;DHT22;18267;52.234;7.444;2024-02-04T14:40:51;10.70;99.90
31661;DHT22;18267;52.234;7.444;2024-02-04T14:43:16;10.70;99.90
31661;DHT22;18267;52.234;7.444;2024-02-04T14:45:43;10.60;99.90
31661;DHT22;18267;52.234;7.444;2024-02-04T14:48:09;10.70;99.90
31661;DHT22;18267;52.234;7.444;2024-02-04T14:50:34;10.70;99.90
31661;DHT22;18267;52.234;7.444;2024-02-04T14:53:00;10.60;99.90
31661;DHT22;18267;52.234;7.444;2024-02-04T14:55:25;10.60;99.90
31661;DHT22;18267;52.234;7.444;2024-02-04T14:57:51;10.60;99.90
31661;DHT22;18267;52.234;7.444;2024-02-04T15:00:17;10.60;99.90
31661;DHT22;18267;52.234;7.444;2024-02-04T15:02:43;10.60;99.90
31661;DHT22;18267;52.234;7.444;2024-02-04T15:05:08;10.60;99.90
31661;DHT22;18267;52.234;7.444;2024-02-04T15:07:34;10.60;99.90
31661;DHT22;18267;52.234;7.444;2024-02-04T15:10:00;10.50;99.90
31661;DHT22;18267;52.234;7.444;2024-02-04T15:12:25;10.50;99.90
31661;DHT22;18267;52.234;7.444;2024-02-04T15:14:51;10.60;99.90
31661;DHT22;18267;52.234;7.444;2024-02-04T15:17:17;10.50;99.90
31661;DHT22;18267;52.234;7.444;2024-02-04T15:19:42;10.60;99.90
31661;DHT22;18267;52.234;7.444;2024-02-04T15:22:08;10.60;99.90
31661;DHT22;18267;52.234;7.444;2024-02-04T15:24:34;10.60;99.90
31661;DHT22;18267;52.234;7.444;2024-02-04T15:27:00;10.60;99.90
31661;DHT22;18267;52.234;7.444;2024-02-04T15:29:35;10.60;99.90
31661;DHT22;18267;52.234;7.444;2024-02-04T15:32:02;10.60;99.90
31661;DHT22;18267;52.234;7.444;2024-02-04T15:34:28;10.60;99.90
31661;DHT22;18267;52.234;7.444;2024-02-04T15:36:58;10.50;99.90
31661;DHT22;18267;52.234;7.444;2024-02-04T15:39:23;10.50;99.90
31661;DHT22;18267;52.234;7.444;2024-02-04T15:41:49;10.50;99.90